createdAt,value
2023-01-22T00:01:44.692Z,35.85
2023-01-22T00:04:56.867Z,34.33
2023-01-22T00:08:09.181Z,34.15
2023-01-22T00:11:22.730Z,36.73
2023-01-22T00:14:34.801Z,34.75
2023-01-22T00:17:46.827Z,37.05
2023-01-22T00:21:00.549Z,35.08
2023-01-22T00:24:14.307Z,34.35
2023-01-22T00:27:26.310Z,34.15
2023-01-22T00:30:38.365Z,33.38
2023-01-22T00:33:52.277Z,33.68
2023-01-22T00:37:04.797Z,34.95
2023-01-22T00:40:20.245Z,34.23
2023-01-22T00:43:33.599Z,32.03
2023-01-22T00:46:45.962Z,31.20
2023-01-22T00:49:57.984Z,31.25
2023-01-22T00:53:09.855Z,31.60
2023-01-22T00:56:23.047Z,32.25
2023-01-22T00:59:35.476Z,35.65
2023-01-22T01:02:59.014Z,33.55
2023-01-22T01:06:15.036Z,32.55
2023-01-22T01:09:27.213Z,30.55
2023-01-22T01:12:39.223Z,30.75
2023-01-22T01:15:51.258Z,29.50
2023-01-22T01:19:06.384Z,29.65
2023-01-22T01:22:18.300Z,30.40
2023-01-22T01:25:30.255Z,29.28
2023-01-22T01:28:45.867Z,29.28
2023-01-22T01:31:58.080Z,27.48
2023-01-22T01:35:11.570Z,26.98
2023-01-22T01:38:24.671Z,30.55
2023-01-22T01:41:36.804Z,31.35
2023-01-22T01:44:52.861Z,29.95
2023-01-22T01:48:15.221Z,29.90
2023-01-22T01:51:32.119Z,29.80
2023-01-22T01:54:46.069Z,29.45
2023-01-22T01:57:59.706Z,28.28
2023-01-22T02:01:17.446Z,29.48
2023-01-22T02:04:29.997Z,29.35
2023-01-22T02:07:42.474Z,27.75
2023-01-22T02:10:54.608Z,28.30
2023-01-22T02:14:12.470Z,28.35
2023-01-22T02:17:27.695Z,29.95
2023-01-22T02:20:42.769Z,27.20
2023-01-22T02:23:54.972Z,29.58
2023-01-22T02:27:06.798Z,28.03
2023-01-22T02:30:21.638Z,26.90
2023-01-22T02:33:33.697Z,27.15
2023-01-22T02:36:47.643Z,26.78
2023-01-22T02:40:00.318Z,27.25
2023-01-22T02:43:12.310Z,27.10
2023-01-22T02:46:27.296Z,24.75
2023-01-22T02:49:39.486Z,24.53
2023-01-22T02:52:51.792Z,22.73
2023-01-22T02:56:04.147Z,22.20
2023-01-22T02:59:16.841Z,21.35
2023-01-22T03:02:29.071Z,21.90
2023-01-22T03:05:42.156Z,22.35
2023-01-22T03:08:54.881Z,20.23
2023-01-22T03:12:07.292Z,20.05
2023-01-22T03:15:35.808Z,21.10
2023-01-22T03:19:03.104Z,20.88
2023-01-22T03:22:15.817Z,19.85
2023-01-22T03:25:28.063Z,19.95
2023-01-22T03:28:40.487Z,19.13
2023-01-22T03:31:52.853Z,19.33
2023-01-22T03:35:05.910Z,19.15
2023-01-22T03:38:19.854Z,19.20
2023-01-22T03:41:32.108Z,18.83
2023-01-22T03:44:44.270Z,19.15
2023-01-22T03:47:57.502Z,18.65
2023-01-22T03:51:19.497Z,18.03
2023-01-22T03:54:31.754Z,19.30
2023-01-22T03:57:45.096Z,19.05
2023-01-22T04:00:58.417Z,19.00
2023-01-22T04:04:12.372Z,17.13
2023-01-22T04:07:26.362Z,18.15
2023-01-22T04:10:38.441Z,16.93
2023-01-22T04:13:51.742Z,18.33
2023-01-22T04:17:05.591Z,17.53
2023-01-22T04:20:34.909Z,17.85
2023-01-22T04:24:04.129Z,17.78
2023-01-22T04:27:17.250Z,17.15
2023-01-22T04:30:31.253Z,17.75
2023-01-22T04:33:45.421Z,15.90
2023-01-22T04:37:02.143Z,16.60
2023-01-22T04:40:20.431Z,15.30
2023-01-22T04:43:33.933Z,16.58
2023-01-22T04:46:47.771Z,17.30
2023-01-22T04:49:59.885Z,15.68
2023-01-22T04:53:12.502Z,16.00
2023-01-22T04:56:24.865Z,15.63
2023-01-22T04:59:38.552Z,15.83
2023-01-22T05:02:51.445Z,15.75
2023-01-22T05:06:08.307Z,16.88
2023-01-22T05:09:22.830Z,16.38
2023-01-22T05:12:36.875Z,15.60
2023-01-22T05:15:49.002Z,14.85
2023-01-22T05:19:02.362Z,14.80
2023-01-22T05:22:16.404Z,15.03
2023-01-22T05:25:28.490Z,14.83
2023-01-22T05:28:42.264Z,15.33
2023-01-22T05:31:56.294Z,14.60
2023-01-22T05:35:17.464Z,16.10
2023-01-22T05:38:31.349Z,14.90
2023-01-22T05:41:43.831Z,14.78
2023-01-22T05:44:57.091Z,14.23
2023-01-22T05:48:11.043Z,14.20
2023-01-22T05:51:29.293Z,14.38
2023-01-22T05:54:43.881Z,15.48
2023-01-22T05:57:56.051Z,12.88
2023-01-22T06:01:09.415Z,12.78
2023-01-22T06:04:25.318Z,12.25
2023-01-22T06:07:39.021Z,13.08
2023-01-22T06:10:50.964Z,13.88
2023-01-22T06:14:04.268Z,13.38
2023-01-22T06:17:17.899Z,13.90
2023-01-22T06:20:32.264Z,13.45
2023-01-22T06:23:45.381Z,12.30
2023-01-22T06:26:58.303Z,13.68
2023-01-22T06:30:18.148Z,13.53
2023-01-22T06:33:30.919Z,13.93
2023-01-22T06:36:43.638Z,12.25
2023-01-22T06:39:56.464Z,12.35
2023-01-22T06:43:19.306Z,13.20
2023-01-22T06:46:33.825Z,12.73
2023-01-22T06:49:47.706Z,12.60
2023-01-22T06:52:59.686Z,12.95
2023-01-22T06:56:13.759Z,11.98
2023-01-22T06:59:26.186Z,12.78
2023-01-22T07:02:38.314Z,11.65
2023-01-22T07:05:50.415Z,11.30
2023-01-22T07:09:02.897Z,12.33
2023-01-22T07:12:15.324Z,18.93
2023-01-22T07:15:27.407Z,72.93
2023-01-22T07:18:39.314Z,32.95
2023-01-22T07:21:51.319Z,13.08
2023-01-22T07:25:03.450Z,11.23
2023-01-22T07:28:17.211Z,11.98
2023-01-22T07:31:29.335Z,10.88
2023-01-22T07:34:41.576Z,10.75
2023-01-22T07:37:59.224Z,11.35
2023-01-22T07:41:25.079Z,11.23
2023-01-22T07:44:27.176Z,11.10
2023-01-22T07:47:39.310Z,10.78
2023-01-22T07:50:51.491Z,11.05
2023-01-22T07:54:03.488Z,11.08
2023-01-22T07:57:16.854Z,12.18
2023-01-22T08:00:30.015Z,11.63
2023-01-22T08:03:42.507Z,12.00
2023-01-22T08:06:54.703Z,11.65
2023-01-22T08:10:07.124Z,11.58
2023-01-22T08:13:19.255Z,12.98
2023-01-22T08:16:31.341Z,12.75
2023-01-22T08:19:43.668Z,28.13
2023-01-22T08:22:56.041Z,20.43
2023-01-22T08:26:09.742Z,12.08
2023-01-22T08:29:21.928Z,13.83
2023-01-22T08:32:34.776Z,12.95
2023-01-22T08:35:47.973Z,13.75
2023-01-22T08:39:00.671Z,13.40
2023-01-22T08:42:12.950Z,12.98
2023-01-22T08:45:25.743Z,12.15
2023-01-22T08:48:40.046Z,13.13
2023-01-22T08:51:53.036Z,14.48
2023-01-22T08:55:06.825Z,12.75
2023-01-22T08:58:20.567Z,13.80
2023-01-22T09:01:32.553Z,13.23
2023-01-22T09:04:45.279Z,12.60
2023-01-22T09:07:57.379Z,13.18
2023-01-22T09:11:11.501Z,13.80
2023-01-22T09:14:23.971Z,13.88
2023-01-22T09:17:36.456Z,11.80
2023-01-22T09:20:50.824Z,11.95
2023-01-22T09:24:02.974Z,12.45
2023-01-22T09:27:15.136Z,12.93
2023-01-22T09:30:27.621Z,14.13
2023-01-22T09:33:39.781Z,13.03
2023-01-22T09:36:52.256Z,12.28
2023-01-22T09:40:04.464Z,11.70
2023-01-22T09:43:29.064Z,13.58
2023-01-22T09:46:47.797Z,56.90
2023-01-22T09:50:04.790Z,14.53
2023-01-22T09:56:36.757Z,13.60
2023-01-22T09:59:55.564Z,13.48
2023-01-22T10:03:11.802Z,13.75
2023-01-22T10:06:29.886Z,14.70
2023-01-22T10:09:42.986Z,12.68
2023-01-22T10:13:02.459Z,12.48
2023-01-22T10:16:16.311Z,13.13
2023-01-22T10:19:33.913Z,14.60
2023-01-22T10:22:48.737Z,13.13
2023-01-22T10:26:05.350Z,13.58
2023-01-22T10:29:23.305Z,14.08
2023-01-22T10:32:37.112Z,11.78
2023-01-22T10:35:53.348Z,13.75
2023-01-22T10:39:17.288Z,13.35
2023-01-22T10:42:33.691Z,17.30
2023-01-22T10:45:56.255Z,15.28
2023-01-22T10:49:10.265Z,15.65
2023-01-22T10:52:31.737Z,16.48
2023-01-22T10:55:48.193Z,15.88
2023-01-22T10:59:01.121Z,16.43
2023-01-22T11:02:22.766Z,17.23
2023-01-22T11:05:39.654Z,18.03
2023-01-22T11:08:58.027Z,16.98
2023-01-22T11:12:16.979Z,17.05
2023-01-22T11:15:37.136Z,17.13
2023-01-22T11:18:56.150Z,16.15
2023-01-22T11:22:14.421Z,19.23
2023-01-22T11:25:27.004Z,18.55
2023-01-22T11:28:48.079Z,17.08
2023-01-22T11:32:22.244Z,19.18
2023-01-22T11:35:40.368Z,18.83
2023-01-22T11:38:58.133Z,18.53
2023-01-22T11:42:18.419Z,18.30
2023-01-22T11:45:56.893Z,19.73
2023-01-22T11:49:26.313Z,20.50
2023-01-22T11:52:49.327Z,19.48
2023-01-22T11:56:26.418Z,21.68
2023-01-22T12:00:06.061Z,20.10
2023-01-22T12:03:55.425Z,21.50
2023-01-22T12:07:29.424Z,22.00
2023-01-22T12:11:13.106Z,22.40
2023-01-22T12:14:41.492Z,20.43
2023-01-22T12:18:07.412Z,22.13
2023-01-22T12:21:27.369Z,21.93
2023-01-22T12:24:45.984Z,22.30
2023-01-22T12:28:03.851Z,24.95
2023-01-22T12:31:21.625Z,24.15
2023-01-22T12:34:38.959Z,22.43
2023-01-22T12:37:56.924Z,22.93
2023-01-22T12:41:28.764Z,22.23
2023-01-22T12:44:53.063Z,24.08
2023-01-22T12:48:11.771Z,23.50
2023-01-22T12:51:41.857Z,23.15
2023-01-22T12:55:01.319Z,21.80
2023-01-22T12:58:27.881Z,23.33
2023-01-22T13:01:43.864Z,24.10
2023-01-22T13:04:57.362Z,25.03
2023-01-22T13:08:25.456Z,25.95
2023-01-22T13:11:41.463Z,24.73
2023-01-22T13:14:55.316Z,26.60
2023-01-22T13:18:10.782Z,26.25
2023-01-22T13:21:29.691Z,25.83
2023-01-22T13:24:42.187Z,26.18
2023-01-22T13:27:54.431Z,27.10
2023-01-22T13:31:12.611Z,28.60
2023-01-22T13:34:24.966Z,28.68
2023-01-22T13:37:38.987Z,25.70
2023-01-22T13:40:57.840Z,25.93
2023-01-22T13:44:11.580Z,24.88
2023-01-22T13:47:39.770Z,25.10
2023-01-22T13:50:58.488Z,23.23
2023-01-22T13:54:12.734Z,25.35
2023-01-22T13:57:27.679Z,26.08
2023-01-22T14:00:41.927Z,25.58
2023-01-22T14:03:58.387Z,25.33
2023-01-22T14:07:13.310Z,18.48
2023-01-22T14:10:28.580Z,22.95
2023-01-22T14:13:50.954Z,26.45
2023-01-22T14:17:03.115Z,27.50
2023-01-22T14:20:18.035Z,31.13
2023-01-22T14:23:30.602Z,28.60
2023-01-22T14:26:42.871Z,29.18
2023-01-22T14:29:56.562Z,28.20
2023-01-22T14:33:10.496Z,26.78
2023-01-22T14:36:22.732Z,27.95
2023-01-22T14:39:37.680Z,27.53
2023-01-22T14:42:50.009Z,26.28
2023-01-22T14:46:02.096Z,27.33
2023-01-22T14:49:14.346Z,28.80
2023-01-22T14:52:26.396Z,28.55
2023-01-22T14:55:38.768Z,29.75
2023-01-22T14:58:51.224Z,28.68
2023-01-22T15:02:03.321Z,28.40
2023-01-22T15:05:17.891Z,26.13
2023-01-22T15:08:30.198Z,27.50
2023-01-22T15:11:42.214Z,28.63
2023-01-22T15:14:54.454Z,27.20
2023-01-22T15:18:06.664Z,28.40
2023-01-22T15:21:19.109Z,29.85
2023-01-22T15:24:31.242Z,29.40
2023-01-22T15:27:44.638Z,28.13
2023-01-22T15:30:57.622Z,48.85
2023-01-22T15:34:10.249Z,28.20
2023-01-22T15:37:23.948Z,27.50
2023-01-22T15:40:37.790Z,27.75
2023-01-22T15:43:50.967Z,25.10
2023-01-22T15:47:03.292Z,28.05
2023-01-22T15:50:20.489Z,28.73
2023-01-22T15:53:33.069Z,27.30
2023-01-22T15:56:46.101Z,26.93
2023-01-22T15:59:58.152Z,25.75
2023-01-22T16:03:11.988Z,26.45
2023-01-22T16:06:27.630Z,25.75
2023-01-22T16:09:39.926Z,28.10
2023-01-22T16:12:52.040Z,25.83
2023-01-22T16:16:09.729Z,26.15
2023-01-22T16:19:22.039Z,28.00
2023-01-22T16:22:34.312Z,29.03
2023-01-22T16:25:48.958Z,26.85
2023-01-22T16:29:03.921Z,26.75
2023-01-22T16:32:16.337Z,27.65
2023-01-22T16:35:28.551Z,27.80
2023-01-22T16:38:42.403Z,26.93
2023-01-22T16:41:57.261Z,26.50
2023-01-22T16:45:10.811Z,27.25
2023-01-22T16:48:22.899Z,26.68
2023-01-22T16:51:42.015Z,26.98
2023-01-22T16:54:54.395Z,26.33
2023-01-22T16:58:06.504Z,27.13
2023-01-22T17:01:20.572Z,29.08
2023-01-22T17:04:33.867Z,28.53
2023-01-22T17:07:46.200Z,28.65
2023-01-22T17:10:58.593Z,26.30
2023-01-22T17:14:10.999Z,29.85
2023-01-22T17:17:23.364Z,27.08
2023-01-22T17:20:35.727Z,27.50
2023-01-22T17:23:48.239Z,29.00
2023-01-22T17:27:02.708Z,26.93
2023-01-22T17:30:18.332Z,26.23
2023-01-22T17:33:30.851Z,24.98
2023-01-22T17:36:43.950Z,25.23
2023-01-22T17:39:56.254Z,25.45
2023-01-22T17:43:08.592Z,25.85
2023-01-22T17:46:23.900Z,23.50
2023-01-22T17:49:36.703Z,25.28
2023-01-22T17:52:48.857Z,25.53
2023-01-22T17:56:01.064Z,24.75
2023-01-22T17:59:14.603Z,26.30
2023-01-22T18:02:26.845Z,22.58
2023-01-22T18:05:40.288Z,25.43
2023-01-22T18:08:52.562Z,30.03
2023-01-22T18:12:05.100Z,27.20
2023-01-22T18:15:18.608Z,26.98
2023-01-22T18:18:31.009Z,27.08
2023-01-22T18:21:44.695Z,25.28
2023-01-22T18:24:58.504Z,25.53
2023-01-22T18:28:10.563Z,27.28
2023-01-22T18:31:26.015Z,26.28
2023-01-22T18:34:40.230Z,28.20
2023-01-22T18:37:54.500Z,26.13
2023-01-22T18:41:28.584Z,27.45
2023-01-22T18:44:41.749Z,24.38
2023-01-22T18:47:59.115Z,28.70
2023-01-22T18:51:13.634Z,29.10
2023-01-22T18:54:25.958Z,28.60
2023-01-22T19:01:22.798Z,30.53
2023-01-22T19:08:16.222Z,30.93
2023-01-22T19:11:36.683Z,30.35
2023-01-22T19:14:50.956Z,29.55
2023-01-22T19:18:03.386Z,31.20
2023-01-22T19:21:40.360Z,30.95
2023-01-22T19:24:52.794Z,33.10
2023-01-22T19:31:50.725Z,30.90
2023-01-22T19:35:03.643Z,33.23
2023-01-22T19:42:00.423Z,37.35
2023-01-22T19:45:14.443Z,35.25
2023-01-22T19:48:26.948Z,32.90
2023-01-22T19:51:39.866Z,33.35
2023-01-22T19:54:55.932Z,32.08
2023-01-22T19:58:08.979Z,30.47
2023-01-22T20:01:23.104Z,29.63
2023-01-22T20:04:45.775Z,32.83
2023-01-22T20:07:57.853Z,32.03
2023-01-22T20:11:12.146Z,33.98
2023-01-22T20:18:04.361Z,38.50
2023-01-22T20:21:17.474Z,37.63
2023-01-22T20:24:30.020Z,36.15
2023-01-22T20:27:42.419Z,34.28
2023-01-22T20:31:04.939Z,34.85
2023-01-22T20:34:17.240Z,34.60
2023-01-22T20:37:29.476Z,34.53
2023-01-22T20:40:45.748Z,34.25
2023-01-22T20:43:59.137Z,33.43
2023-01-22T20:47:11.260Z,34.05
2023-01-22T20:50:24.123Z,34.13
2023-01-22T20:53:37.052Z,36.65
2023-01-22T20:56:52.166Z,38.13
2023-01-22T21:00:04.818Z,38.38
2023-01-22T21:03:17.009Z,39.30
2023-01-22T21:06:30.369Z,38.23
2023-01-22T21:09:43.235Z,38.10
2023-01-22T21:12:55.264Z,40.98
2023-01-22T21:16:14.699Z,39.90
2023-01-22T21:19:29.774Z,39.38
2023-01-22T21:22:42.495Z,37.60
2023-01-22T21:25:54.477Z,42.23
2023-01-22T21:29:11.098Z,40.75
2023-01-22T21:32:23.394Z,41.28
2023-01-22T21:35:35.380Z,40.23
2023-01-22T21:38:48.438Z,38.75
2023-01-22T21:42:03.267Z,38.53
2023-01-22T21:45:31.733Z,40.60
2023-01-22T21:48:43.784Z,43.50
2023-01-22T21:51:58.883Z,40.80
2023-01-22T21:55:12.876Z,38.90
2023-01-22T21:58:25.013Z,37.73
2023-01-22T22:01:37.034Z,39.38
2023-01-22T22:04:50.844Z,38.18
2023-01-22T22:08:03.905Z,39.20
2023-01-22T22:11:17.404Z,41.83
2023-01-22T22:14:30.117Z,40.88
2023-01-22T22:32:47.646Z,41.65
2023-01-22T22:39:56.496Z,41.35
2023-01-22T22:54:30.491Z,38.38
2023-01-22T22:57:42.365Z,37.63
2023-01-22T23:05:16.244Z,28.78
2023-01-22T23:17:23.405Z,26.80
2023-01-22T23:38:49.059Z,24.20
2023-01-22T23:46:00.718Z,25.10
